Terminal Aerodrome Forecast
Issued by NWS Quad Cities IA IL

Home | Current Version | Previous Version | Text Only | Print | Product List | Glossary On
Versions: 1 2 3 4 5 6 7 8 9 10 11 12 13 14 15 16 17 18 19 20
000
FTUS43 KDVN 222300
TAFMLI
TAF
KMLI 222320Z 2300/2324 14007KT P6SM BKN150
     FM231100 15008KT P6SM BKN070
     FM231400 15008KT P6SM VCSH OVC060
     FM231600 17009KT P6SM -RA OVC040
     FM232200 21008KT P6SM SCT035 BKN120=

USA.gov is the U.S. government's official web portal to all federal, state and local government web resources and services.